sensor_id;sensor_type;location;lat;lon;timestamp;pressure;altitude;pressure_sealevel;temperature;humidity
46412;BME280;32113;42.012;24.870;2024-01-16T00:01:42;97687.84;;;4.76;58.03
46412;BME280;32113;42.012;24.870;2024-01-16T00:04:08;97687.00;;;4.74;58.58
46412;BME280;32113;42.012;24.870;2024-01-16T00:06:33;97687.84;;;4.71;58.91
46412;BME280;32113;42.012;24.870;2024-01-16T00:09:03;97692.06;;;4.77;58.33
46412;BME280;32113;42.012;24.870;2024-01-16T00:11:29;97690.31;;;4.79;58.85
46412;BME280;32113;42.012;24.870;2024-01-16T00:13:54;97683.53;;;4.83;58.73
46412;BME280;32113;42.012;24.870;2024-01-16T00:16:19;97664.91;;;4.81;58.10
46412;BME280;32113;42.012;24.870;2024-01-16T00:18:45;97659.88;;;4.75;58.41
46412;BME280;32113;42.012;24.870;2024-01-16T00:21:10;97666.66;;;4.72;58.57
46412;BME280;32113;42.012;24.870;2024-01-16T00:23:35;97668.31;;;4.78;58.84
46412;BME280;32113;42.012;24.870;2024-01-16T00:26:01;97666.56;;;4.83;58.01
46412;BME280;32113;42.012;24.870;2024-01-16T00:28:26;97669.03;;;4.91;57.43
46412;BME280;32113;42.012;24.870;2024-01-16T00:30:52;97663.94;;;4.94;57.70
46412;BME280;32113;42.012;24.870;2024-01-16T00:33:17;97671.56;;;4.93;57.49
46412;BME280;32113;42.012;24.870;2024-01-16T00:35:42;97673.31;;;4.91;58.39
46412;BME280;32113;42.012;24.870;2024-01-16T00:38:08;97675.78;;;4.94;58.29
46412;BME280;32113;42.012;24.870;2024-01-16T00:40:33;97665.53;;;5.05;57.73
46412;BME280;32113;42.012;24.870;2024-01-16T00:42:59;97665.53;;;5.03;57.41
46412;BME280;32113;42.012;24.870;2024-01-16T00:45:24;97663.03;;;5.00;57.62
46412;BME280;32113;42.012;24.870;2024-01-16T00:47:50;97665.53;;;5.02;57.10
46412;BME280;32113;42.012;24.870;2024-01-16T00:50:15;97672.28;;;5.07;57.15
46412;BME280;32113;42.012;24.870;2024-01-16T00:52:41;97684.19;;;5.00;57.38
46412;BME280;32113;42.012;24.870;2024-01-16T00:55:06;97677.38;;;5.06;56.96
46412;BME280;32113;42.012;24.870;2024-01-16T00:57:32;97666.38;;;5.04;56.73
46412;BME280;32113;42.012;24.870;2024-01-16T00:59:58;97669.81;;;5.01;57.38
46412;BME280;32113;42.012;24.870;2024-01-16T01:02:23;97663.94;;;4.96;57.54
46412;BME280;32113;42.012;24.870;2024-01-16T01:04:49;97668.94;;;5.00;57.59
46412;BME280;32113;42.012;24.870;2024-01-16T01:07:14;97669.78;;;5.03;57.36
46412;BME280;32113;42.012;24.870;2024-01-16T01:09:40;97663.88;;;4.99;57.66
46412;BME280;32113;42.012;24.870;2024-01-16T01:12:06;97674.88;;;5.01;57.64
46412;BME280;32113;42.012;24.870;2024-01-16T01:14:31;97669.00;;;4.96;57.86
46412;BME280;32113;42.012;24.870;2024-01-16T01:16:57;97681.72;;;4.94;58.08
46412;BME280;32113;42.012;24.870;2024-01-16T01:19:23;97674.13;;;4.90;57.88
46412;BME280;32113;42.012;24.870;2024-01-16T01:21:49;97662.38;;;4.79;58.03
46412;BME280;32113;42.012;24.870;2024-01-16T01:24:15;97650.59;;;4.72;58.16
46412;BME280;32113;42.012;24.870;2024-01-16T01:26:43;97648.16;;;4.59;58.99
46412;BME280;32113;42.012;24.870;2024-01-16T01:29:08;97648.25;;;4.49;59.40
46412;BME280;32113;42.012;24.870;2024-01-16T01:31:34;97644.03;;;4.49;59.44
46412;BME280;32113;42.012;24.870;2024-01-16T01:33:59;97645.72;;;4.47;59.66
46412;BME280;32113;42.012;24.870;2024-01-16T01:36:25;97649.91;;;4.50;59.56
46412;BME280;32113;42.012;24.870;2024-01-16T01:38:50;97635.53;;;4.50;59.62
46412;BME280;32113;42.012;24.870;2024-01-16T01:41:16;97626.22;;;4.52;59.20
46412;BME280;32113;42.012;24.870;2024-01-16T01:43:42;97621.19;;;4.44;58.95
46412;BME280;32113;42.012;24.870;2024-01-16T01:46:14;97628.84;;;4.41;58.95
46412;BME280;32113;42.012;24.870;2024-01-16T01:48:41;97619.59;;;4.34;59.05
46412;BME280;32113;42.012;24.870;2024-01-16T01:51:08;97615.38;;;4.31;58.45
46412;BME280;32113;42.012;24.870;2024-01-16T01:53:34;97611.16;;;4.29;58.67
46412;BME280;32113;42.012;24.870;2024-01-16T01:56:03;97614.56;;;4.28;59.09
46412;BME280;32113;42.012;24.870;2024-01-16T01:58:32;97612.91;;;4.25;59.14
46412;BME280;32113;42.012;24.870;2024-01-16T02:00:59;97626.47;;;4.23;59.58
46412;BME280;32113;42.012;24.870;2024-01-16T02:03:27;97634.88;;;4.26;59.32
46412;BME280;32113;42.012;24.870;2024-01-16T02:05:53;97631.47;;;4.32;58.58
46412;BME280;32113;42.012;24.870;2024-01-16T02:08:18;97630.66;;;4.25;59.05
46412;BME280;32113;42.012;24.870;2024-01-16T02:10:47;97641.69;;;4.23;59.23
46412;BME280;32113;42.012;24.870;2024-01-16T02:13:13;97643.41;;;4.17;58.72
46412;BME280;32113;42.012;24.870;2024-01-16T02:15:38;97643.38;;;4.22;58.50
46412;BME280;32113;42.012;24.870;2024-01-16T02:18:06;97645.97;;;4.17;58.26
46412;BME280;32113;42.012;24.870;2024-01-16T02:20:32;97640.03;;;4.17;58.79
46412;BME280;32113;42.012;24.870;2024-01-16T02:23:00;97640.84;;;4.22;58.55
46412;BME280;32113;42.012;24.870;2024-01-16T02:25:29;97645.97;;;4.17;58.64
46412;BME280;32113;42.012;24.870;2024-01-16T02:27:55;97641.75;;;4.15;58.64
46412;BME280;32113;42.012;24.870;2024-01-16T02:30:20;97631.63;;;4.08;58.36
46412;BME280;32113;42.012;24.870;2024-01-16T02:32:45;97646.78;;;4.16;58.30
46412;BME280;32113;42.012;24.870;2024-01-16T02:35:11;97657.81;;;4.15;58.67
46412;BME280;32113;42.012;24.870;2024-01-16T02:37:36;97669.63;;;4.16;58.81
46412;BME280;32113;42.012;24.870;2024-01-16T02:40:03;97669.69;;;4.15;58.47
46412;BME280;32113;42.012;24.870;2024-01-16T02:42:35;97675.59;;;4.14;58.49
46412;BME280;32113;42.012;24.870;2024-01-16T02:45:02;97673.94;;;4.08;58.67
46412;BME280;32113;42.012;24.870;2024-01-16T02:47:29;97674.78;;;4.07;58.89
46412;BME280;32113;42.012;24.870;2024-01-16T02:49:54;97672.28;;;4.02;58.96
46412;BME280;32113;42.012;24.870;2024-01-16T02:52:20;97665.53;;;4.01;58.96
46412;BME280;32113;42.012;24.870;2024-01-16T02:54:45;97675.69;;;3.98;59.82
46412;BME280;32113;42.012;24.870;2024-01-16T02:57:11;97667.22;;;3.98;59.91
46412;BME280;32113;42.012;24.870;2024-01-16T02:59:36;97665.53;;;4.00;60.15
46412;BME280;32113;42.012;24.870;2024-01-16T03:02:02;97680.75;;;4.03;60.17
46412;BME280;32113;42.012;24.870;2024-01-16T03:04:29;97676.47;;;4.08;60.13
46412;BME280;32113;42.012;24.870;2024-01-16T03:06:55;97678.97;;;4.11;60.29
46412;BME280;32113;42.012;24.870;2024-01-16T03:09:20;97682.44;;;4.05;60.07
46412;BME280;32113;42.012;24.870;2024-01-16T03:11:46;97684.97;;;4.01;60.41
46412;BME280;32113;42.012;24.870;2024-01-16T03:14:12;97681.63;;;3.97;61.08
46412;BME280;32113;42.012;24.870;2024-01-16T03:16:39;97662.19;;;3.91;61.47
46412;BME280;32113;42.012;24.870;2024-01-16T03:19:04;97662.19;;;3.93;61.66
46412;BME280;32113;42.012;24.870;2024-01-16T03:21:30;97671.47;;;3.94;61.62
46412;BME280;32113;42.012;24.870;2024-01-16T03:23:55;97675.69;;;4.03;61.33
46412;BME280;32113;42.012;24.870;2024-01-16T03:26:21;97686.59;;;4.11;60.93
46412;BME280;32113;42.012;24.870;2024-01-16T03:28:47;97673.91;;;4.10;60.92
46412;BME280;32113;42.012;24.870;2024-01-16T03:31:13;97667.19;;;4.04;61.87
46412;BME280;32113;42.012;24.870;2024-01-16T03:33:39;97664.66;;;4.01;62.81
46412;BME280;32113;42.012;24.870;2024-01-16T03:36:08;97663.03;;;3.89;62.91
46412;BME280;32113;42.012;24.870;2024-01-16T03:38:35;97675.78;;;3.83;63.69
46412;BME280;32113;42.012;24.870;2024-01-16T03:41:02;97672.38;;;3.80;63.84
46412;BME280;32113;42.012;24.870;2024-01-16T03:43:29;97672.34;;;3.94;63.56
46412;BME280;32113;42.012;24.870;2024-01-16T03:45:57;97669.69;;;4.12;63.15
46412;BME280;32113;42.012;24.870;2024-01-16T03:48:22;97668.75;;;4.27;63.22
46412;BME280;32113;42.012;24.870;2024-01-16T03:50:48;97671.22;;;4.36;62.85
46412;BME280;32113;42.012;24.870;2024-01-16T03:53:14;97686.34;;;4.47;62.46
46412;BME280;32113;42.012;24.870;2024-01-16T03:55:39;97704.06;;;4.58;62.02
46412;BME280;32113;42.012;24.870;2024-01-16T03:58:05;97702.31;;;4.66;61.36
46412;BME280;32113;42.012;24.870;2024-01-16T04:00:30;97708.19;;;4.71;61.40
46412;BME280;32113;42.012;24.870;2024-01-16T04:02:56;97727.63;;;4.76;60.73
46412;BME280;32113;42.012;24.870;2024-01-16T04:05:21;97725.19;;;4.62;59.61
46412;BME280;32113;42.012;24.870;2024-01-16T04:07:47;97743.09;;;4.46;60.41
46412;BME280;32113;42.012;24.870;2024-01-16T04:10:12;97744.00;;;4.37;60.53
46412;BME280;32113;42.012;24.870;2024-01-16T04:12:38;97753.31;;;4.35;60.94
46412;BME280;32113;42.012;24.870;2024-01-16T04:15:04;97752.44;;;4.39;60.63
46412;BME280;32113;42.012;24.870;2024-01-16T04:17:29;97764.34;;;4.31;61.54
46412;BME280;32113;42.012;24.870;2024-01-16T04:19:55;97762.66;;;4.33;61.27
46412;BME280;32113;42.012;24.870;2024-01-16T04:22:20;97760.97;;;4.33;61.35
46412;BME280;32113;42.012;24.870;2024-01-16T04:24:46;97761.78;;;4.37;61.04
46412;BME280;32113;42.012;24.870;2024-01-16T04:27:13;97769.41;;;4.37;61.76
46412;BME280;32113;42.012;24.870;2024-01-16T04:29:38;97775.25;;;4.49;61.67
46412;BME280;32113;42.012;24.870;2024-01-16T04:32:04;97780.38;;;4.44;62.56
46412;BME280;32113;42.012;24.870;2024-01-16T04:34:29;97778.66;;;4.47;63.26
46412;BME280;32113;42.012;24.870;2024-01-16T04:36:55;97773.56;;;4.44;63.23
46412;BME280;32113;42.012;24.870;2024-01-16T04:39:21;97775.19;;;4.56;63.46
46412;BME280;32113;42.012;24.870;2024-01-16T04:41:49;97785.28;;;4.66;63.30
46412;BME280;32113;42.012;24.870;2024-01-16T04:44:15;97779.31;;;4.75;63.01
46412;BME280;32113;42.012;24.870;2024-01-16T04:46:40;97785.22;;;4.81;63.06
46412;BME280;32113;42.012;24.870;2024-01-16T04:49:06;97787.72;;;4.84;62.80
46412;BME280;32113;42.012;24.870;2024-01-16T04:51:31;97788.56;;;4.82;63.30
46412;BME280;32113;42.012;24.870;2024-01-16T04:53:57;97789.44;;;4.82;63.33
46412;BME280;32113;42.012;24.870;2024-01-16T04:56:22;97797.03;;;4.85;63.03
46412;BME280;32113;42.012;24.870;2024-01-16T04:58:48;97791.97;;;4.84;63.96
46412;BME280;32113;42.012;24.870;2024-01-16T05:01:13;97795.38;;;4.83;64.50
46412;BME280;32113;42.012;24.870;2024-01-16T05:03:39;97798.66;;;4.93;65.52
46412;BME280;32113;42.012;24.870;2024-01-16T05:06:04;97801.94;;;5.07;65.46
46412;BME280;32113;42.012;24.870;2024-01-16T05:08:30;97812.88;;;5.19;63.96
46412;BME280;32113;42.012;24.870;2024-01-16T05:10:56;97814.47;;;5.29;63.94
46412;BME280;32113;42.012;24.870;2024-01-16T05:13:22;97815.28;;;5.36;61.74
46412;BME280;32113;42.012;24.870;2024-01-16T05:15:47;97819.47;;;5.40;62.18
46412;BME280;32113;42.012;24.870;2024-01-16T05:18:13;97823.69;;;5.43;61.24
46412;BME280;32113;42.012;24.870;2024-01-16T05:20:39;97811.78;;;5.43;61.31
46412;BME280;32113;42.012;24.870;2024-01-16T05:23:05;97820.22;;;5.51;60.63
46412;BME280;32113;42.012;24.870;2024-01-16T05:25:31;97815.91;;;5.58;60.66
46412;BME280;32113;42.012;24.870;2024-01-16T05:27:56;97827.81;;;5.56;62.44
46412;BME280;32113;42.012;24.870;2024-01-16T05:30:22;97844.66;;;5.68;62.61
46412;BME280;32113;42.012;24.870;2024-01-16T05:32:47;97840.28;;;5.79;62.92
46412;BME280;32113;42.012;24.870;2024-01-16T05:35:13;97847.00;;;5.87;62.75
46412;BME280;32113;42.012;24.870;2024-01-16T05:37:38;97855.44;;;5.92;62.55
46412;BME280;32113;42.012;24.870;2024-01-16T05:40:04;97856.22;;;5.99;59.99
46412;BME280;32113;42.012;24.870;2024-01-16T05:42:32;97862.13;;;6.06;58.46
46412;BME280;32113;42.012;24.870;2024-01-16T05:44:58;97879.09;;;6.07;57.28
46412;BME280;32113;42.012;24.870;2024-01-16T05:47:23;97901.13;;;6.08;56.79
46412;BME280;32113;42.012;24.870;2024-01-16T05:49:53;97909.66;;;6.05;56.09
46412;BME280;32113;42.012;24.870;2024-01-16T05:52:19;97925.78;;;5.99;55.35
46412;BME280;32113;42.012;24.870;2024-01-16T05:54:44;97951.41;;;5.85;55.29
46412;BME280;32113;42.012;24.870;2024-01-16T05:57:10;97950.75;;;5.63;55.09
46412;BME280;32113;42.012;24.870;2024-01-16T05:59:35;97959.28;;;5.56;55.57
46412;BME280;32113;42.012;24.870;2024-01-16T06:02:01;97961.88;;;5.45;55.29
46412;BME280;32113;42.012;24.870;2024-01-16T06:04:26;97965.28;;;5.44;55.18
46412;BME280;32113;42.012;24.870;2024-01-16T06:06:52;97961.06;;;5.43;54.67
46412;BME280;32113;42.012;24.870;2024-01-16T06:09:17;97964.41;;;5.48;54.90
46412;BME280;32113;42.012;24.870;2024-01-16T06:11:43;97970.44;;;5.36;54.58
46412;BME280;32113;42.012;24.870;2024-01-16T06:14:09;97973.06;;;5.22;55.85
46412;BME280;32113;42.012;24.870;2024-01-16T06:16:35;97968.81;;;5.21;55.98
46412;BME280;32113;42.012;24.870;2024-01-16T06:19:01;97963.78;;;5.11;56.49
46412;BME280;32113;42.012;24.870;2024-01-16T06:21:26;97970.63;;;5.03;56.59
46412;BME280;32113;42.012;24.870;2024-01-16T06:23:52;97978.28;;;4.95;58.15
46412;BME280;32113;42.012;24.870;2024-01-16T06:26:18;97995.22;;;5.03;58.37
46412;BME280;32113;42.012;24.870;2024-01-16T06:28:43;97989.25;;;5.05;58.86
46412;BME280;32113;42.012;24.870;2024-01-16T06:31:10;97990.09;;;5.12;59.92
46412;BME280;32113;42.012;24.870;2024-01-16T06:33:35;97996.81;;;5.22;60.23
46412;BME280;32113;42.012;24.870;2024-01-16T06:36:02;98000.13;;;5.34;62.57
46412;BME280;32113;42.012;24.870;2024-01-16T06:38:30;98008.53;;;5.47;62.13
46412;BME280;32113;42.012;24.870;2024-01-16T06:40:56;98005.09;;;5.52;64.16
46412;BME280;32113;42.012;24.870;2024-01-16T06:43:21;97996.44;;;5.72;67.65
46412;BME280;32113;42.012;24.870;2024-01-16T06:45:47;98012.31;;;6.12;71.03
46412;BME280;32113;42.012;24.870;2024-01-16T06:48:12;98029.88;;;6.40;70.25
46412;BME280;32113;42.012;24.870;2024-01-16T06:50:38;98035.53;;;6.68;69.96
46412;BME280;32113;42.012;24.870;2024-01-16T06:53:04;98042.84;;;6.98;68.86
46412;BME280;32113;42.012;24.870;2024-01-16T06:55:29;98061.22;;;7.27;67.67
46412;BME280;32113;42.012;24.870;2024-01-16T06:57:55;98073.72;;;7.45;67.34
46412;BME280;32113;42.012;24.870;2024-01-16T07:00:21;98079.38;;;7.68;66.64
46412;BME280;32113;42.012;24.870;2024-01-16T07:02:48;98085.91;;;7.86;65.91
46412;BME280;32113;42.012;24.870;2024-01-16T07:05:14;98089.19;;;7.96;65.21
46412;BME280;32113;42.012;24.870;2024-01-16T07:07:39;98101.81;;;8.05;64.83
46412;BME280;32113;42.012;24.870;2024-01-16T07:10:05;98099.13;;;8.14;64.49
46412;BME280;32113;42.012;24.870;2024-01-16T07:12:33;98101.56;;;8.22;63.66
46412;BME280;32113;42.012;24.870;2024-01-16T07:14:59;98109.91;;;8.34;63.33
46412;BME280;32113;42.012;24.870;2024-01-16T07:17:24;98116.69;;;8.35;63.34
46412;BME280;32113;42.012;24.870;2024-01-16T07:19:50;98108.13;;;8.39;62.82
46412;BME280;32113;42.012;24.870;2024-01-16T07:22:15;98125.00;;;8.48;62.70
46412;BME280;32113;42.012;24.870;2024-01-16T07:24:41;98122.31;;;8.59;62.20
46412;BME280;32113;42.012;24.870;2024-01-16T07:27:07;98138.41;;;8.64;61.83
46412;BME280;32113;42.012;24.870;2024-01-16T07:29:32;98134.97;;;8.65;61.75
46412;BME280;32113;42.012;24.870;2024-01-16T07:31:58;98147.00;;;8.60;61.64
46412;BME280;32113;42.012;24.870;2024-01-16T07:34:23;98144.41;;;8.61;61.29
46412;BME280;32113;42.012;24.870;2024-01-16T07:36:50;98157.09;;;8.67;61.36
46412;BME280;32113;42.012;24.870;2024-01-16T07:39:16;98167.31;;;8.67;61.42
46412;BME280;32113;42.012;24.870;2024-01-16T07:41:42;98181.84;;;8.65;61.65
46412;BME280;32113;42.012;24.870;2024-01-16T07:44:07;98186.94;;;8.67;61.95
46412;BME280;32113;42.012;24.870;2024-01-16T07:46:33;98192.16;;;8.59;62.24
46412;BME280;32113;42.012;24.870;2024-01-16T07:48:58;98205.06;;;8.53;63.37
46412;BME280;32113;42.012;24.870;2024-01-16T07:51:24;98206.72;;;8.56;63.42
46412;BME280;32113;42.012;24.870;2024-01-16T07:54:04;98211.13;;;8.46;63.89
46412;BME280;32113;42.012;24.870;2024-01-16T07:56:30;98224.81;;;8.40;63.34
46412;BME280;32113;42.012;24.870;2024-01-16T07:58:55;98240.16;;;8.40;63.05
46412;BME280;32113;42.012;24.870;2024-01-16T08:01:21;98237.63;;;8.37;63.76
46412;BME280;32113;42.012;24.870;2024-01-16T08:03:46;98254.78;;;8.28;63.09
46412;BME280;32113;42.012;24.870;2024-01-16T08:06:11;98258.16;;;8.34;63.33
46412;BME280;32113;42.012;24.870;2024-01-16T08:08:37;98265.09;;;8.24;62.44
46412;BME280;32113;42.012;24.870;2024-01-16T08:11:02;98267.63;;;8.27;62.51
46412;BME280;32113;42.012;24.870;2024-01-16T08:13:28;98262.41;;;8.35;62.18
46412;BME280;32113;42.012;24.870;2024-01-16T08:15:54;98271.72;;;8.39;61.64
46412;BME280;32113;42.012;24.870;2024-01-16T08:18:19;98281.09;;;8.37;60.80
46412;BME280;32113;42.012;24.870;2024-01-16T08:20:44;98278.63;;;8.31;60.83
46412;BME280;32113;42.012;24.870;2024-01-16T08:23:10;98292.28;;;8.30;60.44
46412;BME280;32113;42.012;24.870;2024-01-16T08:25:35;98298.19;;;8.33;60.28
46412;BME280;32113;42.012;24.870;2024-01-16T08:28:01;98289.72;;;8.30;59.58
46412;BME280;32113;42.012;24.870;2024-01-16T08:30:26;98310.06;;;8.37;59.39
46412;BME280;32113;42.012;24.870;2024-01-16T08:32:51;98315.75;;;8.60;58.97
46412;BME280;32113;42.012;24.870;2024-01-16T08:35:17;98307.22;;;8.61;57.69
46412;BME280;32113;42.012;24.870;2024-01-16T08:37:42;98319.97;;;8.62;57.72
46412;BME280;32113;42.012;24.870;2024-01-16T08:40:08;98313.81;;;8.76;56.49
46412;BME280;32113;42.012;24.870;2024-01-16T08:42:33;98323.03;;;8.88;56.16
46412;BME280;32113;42.012;24.870;2024-01-16T08:44:59;98324.59;;;8.97;55.04
46412;BME280;32113;42.012;24.870;2024-01-16T08:47:24;98327.75;;;9.14;54.69
46412;BME280;32113;42.012;24.870;2024-01-16T08:49:50;98334.47;;;9.22;54.54
46412;BME280;32113;42.012;24.870;2024-01-16T08:52:15;98339.31;;;9.37;52.85
46412;BME280;32113;42.012;24.870;2024-01-16T08:54:41;98341.75;;;9.43;52.06
46412;BME280;32113;42.012;24.870;2024-01-16T08:57:07;98339.06;;;9.51;51.69
46412;BME280;32113;42.012;24.870;2024-01-16T08:59:35;98351.63;;;9.67;50.71
46412;BME280;32113;42.012;24.870;2024-01-16T09:02:00;98355.69;;;9.79;50.22
46412;BME280;32113;42.012;24.870;2024-01-16T09:04:26;98353.88;;;9.84;49.17
46412;BME280;32113;42.012;24.870;2024-01-16T09:06:51;98364.00;;;9.90;49.65
46412;BME280;32113;42.012;24.870;2024-01-16T09:09:17;98362.34;;;9.86;48.67
46412;BME280;32113;42.012;24.870;2024-01-16T09:11:43;98361.59;;;9.81;47.36
46412;BME280;32113;42.012;24.870;2024-01-16T09:14:08;98366.00;;;9.74;47.74
46412;BME280;32113;42.012;24.870;2024-01-16T09:16:34;98358.44;;;9.66;46.88
46412;BME280;32113;42.012;24.870;2024-01-16T09:18:59;98365.22;;;9.70;46.85
46412;BME280;32113;42.012;24.870;2024-01-16T09:21:26;98377.13;;;9.71;46.95
46412;BME280;32113;42.012;24.870;2024-01-16T09:23:51;98368.38;;;9.83;45.99
46412;BME280;32113;42.012;24.870;2024-01-16T09:26:17;98364.84;;;9.92;44.88
46412;BME280;32113;42.012;24.870;2024-01-16T09:28:42;98375.41;;;9.73;43.65
46412;BME280;32113;42.012;24.870;2024-01-16T09:31:08;98364.50;;;9.62;43.92
46412;BME280;32113;42.012;24.870;2024-01-16T09:33:34;98366.13;;;9.66;43.66
46412;BME280;32113;42.012;24.870;2024-01-16T09:36:00;98369.19;;;9.87;43.40
46412;BME280;32113;42.012;24.870;2024-01-16T09:38:25;98367.31;;;10.39;42.28
46412;BME280;32113;42.012;24.870;2024-01-16T09:40:51;98367.22;;;10.87;41.35
46412;BME280;32113;42.012;24.870;2024-01-16T09:43:18;98365.03;;;11.44;40.53
46412;BME280;32113;42.012;24.870;2024-01-16T09:45:44;98381.00;;;11.89;38.35
46412;BME280;32113;42.012;24.870;2024-01-16T09:48:13;98381.81;;;12.24;37.49
46412;BME280;32113;42.012;24.870;2024-01-16T09:50:39;98362.84;;;12.28;36.94
46412;BME280;32113;42.012;24.870;2024-01-16T09:53:04;98380.63;;;12.36;36.72
46412;BME280;32113;42.012;24.870;2024-01-16T09:55:30;98387.94;;;12.50;37.15
46412;BME280;32113;42.012;24.870;2024-01-16T09:57:55;98390.94;;;12.65;35.94
46412;BME280;32113;42.012;24.870;2024-01-16T10:00:21;98387.50;;;12.66;36.07
46412;BME280;32113;42.012;24.870;2024-01-16T10:02:47;98396.06;;;12.66;35.89
46412;BME280;32113;42.012;24.870;2024-01-16T10:05:13;98394.69;;;12.54;35.45
46412;BME280;32113;42.012;24.870;2024-01-16T10:07:39;98395.09;;;12.70;35.92
46412;BME280;32113;42.012;24.870;2024-01-16T10:10:06;98387.78;;;12.56;35.38
46412;BME280;32113;42.012;24.870;2024-01-16T10:12:33;98388.88;;;12.78;35.00
46412;BME280;32113;42.012;24.870;2024-01-16T10:14:59;98394.34;;;12.95;34.36
46412;BME280;32113;42.012;24.870;2024-01-16T10:17:37;98401.16;;;13.25;34.19
46412;BME280;32113;42.012;24.870;2024-01-16T10:20:03;98402.25;;;13.45;33.66
46412;BME280;32113;42.012;24.870;2024-01-16T10:22:30;98409.22;;;13.70;32.50
46412;BME280;32113;42.012;24.870;2024-01-16T10:25:09;98404.78;;;13.73;32.48
46412;BME280;32113;42.012;24.870;2024-01-16T10:27:39;98406.72;;;13.66;33.02
46412;BME280;32113;42.012;24.870;2024-01-16T10:30:06;98408.41;;;13.40;31.95
46412;BME280;32113;42.012;24.870;2024-01-16T10:32:50;98417.59;;;13.21;32.15
46412;BME280;32113;42.012;24.870;2024-01-16T10:35:15;98420.38;;;12.26;33.39
46412;BME280;32113;42.012;24.870;2024-01-16T10:40:08;98424.91;;;11.46;34.96
46412;BME280;32113;42.012;24.870;2024-01-16T10:42:34;98425.75;;;11.09;35.32
46412;BME280;32113;42.012;24.870;2024-01-16T10:44:59;98432.16;;;10.90;35.70
46412;BME280;32113;42.012;24.870;2024-01-16T10:47:25;98438.53;;;10.72;35.74
46412;BME280;32113;42.012;24.870;2024-01-16T10:49:50;98429.75;;;10.38;36.06
46412;BME280;32113;42.012;24.870;2024-01-16T10:52:17;98430.91;;;10.68;36.34
46412;BME280;32113;42.012;24.870;2024-01-16T10:54:43;98434.00;;;10.84;36.21
46412;BME280;32113;42.012;24.870;2024-01-16T10:57:15;98438.53;;;11.12;35.71
46412;BME280;32113;42.012;24.870;2024-01-16T10:59:48;98442.81;;;11.49;34.95
46412;BME280;32113;42.012;24.870;2024-01-16T11:02:19;98435.66;;;11.62;34.26
46412;BME280;32113;42.012;24.870;2024-01-16T11:04:46;98428.56;;;11.72;34.28
46412;BME280;32113;42.012;24.870;2024-01-16T11:07:13;98424.66;;;11.90;34.41
46412;BME280;32113;42.012;24.870;2024-01-16T11:09:40;98428.75;;;11.99;33.94
46412;BME280;32113;42.012;24.870;2024-01-16T11:12:08;98438.25;;;12.29;34.17
46412;BME280;32113;42.012;24.870;2024-01-16T11:14:36;98434.06;;;12.26;33.21
46412;BME280;32113;42.012;24.870;2024-01-16T11:17:03;98443.00;;;12.44;32.58
46412;BME280;32113;42.012;24.870;2024-01-16T11:19:31;98442.66;;;12.57;32.28
46412;BME280;32113;42.012;24.870;2024-01-16T11:21:58;98446.25;;;12.81;32.91
46412;BME280;32113;42.012;24.870;2024-01-16T11:24:24;98453.28;;;12.76;31.57
46412;BME280;32113;42.012;24.870;2024-01-16T11:26:49;98447.25;;;12.75;31.67
46412;BME280;32113;42.012;24.870;2024-01-16T11:31:53;98458.59;;;12.70;32.59
46412;BME280;32113;42.012;24.870;2024-01-16T11:37:13;98451.09;;;12.92;32.30
46412;BME280;32113;42.012;24.870;2024-01-16T11:39:39;98463.59;;;13.05;31.61
46412;BME280;32113;42.012;24.870;2024-01-16T11:42:08;98453.84;;;13.14;32.07
46412;BME280;32113;42.012;24.870;2024-01-16T11:44:44;98454.41;;;12.96;31.20
46412;BME280;32113;42.012;24.870;2024-01-16T11:47:20;98454.00;;;13.10;30.70
46412;BME280;32113;42.012;24.870;2024-01-16T11:49:47;98448.66;;;13.16;31.40
46412;BME280;32113;42.012;24.870;2024-01-16T11:52:13;98463.88;;;13.24;30.92
46412;BME280;32113;42.012;24.870;2024-01-16T11:54:41;98457.41;;;13.10;30.80
46412;BME280;32113;42.012;24.870;2024-01-16T11:57:31;98467.44;;;13.20;30.46
46412;BME280;32113;42.012;24.870;2024-01-16T12:00:03;98475.47;;;12.80;30.81
46412;BME280;32113;42.012;24.870;2024-01-16T12:03:08;98472.06;;;12.78;30.79
46412;BME280;32113;42.012;24.870;2024-01-16T12:05:34;98472.28;;;12.70;30.57
46412;BME280;32113;42.012;24.870;2024-01-16T12:07:59;98484.19;;;12.74;30.69
46412;BME280;32113;42.012;24.870;2024-01-16T12:10:28;98492.34;;;12.59;30.19
46412;BME280;32113;42.012;24.870;2024-01-16T12:12:58;98494.38;;;12.47;31.22
46412;BME280;32113;42.012;24.870;2024-01-16T12:15:23;98494.25;;;12.52;30.85
46412;BME280;32113;42.012;24.870;2024-01-16T12:20:21;98498.44;;;12.56;31.44
46412;BME280;32113;42.012;24.870;2024-01-16T12:23:16;98500.03;;;12.60;31.39
46412;BME280;32113;42.012;24.870;2024-01-16T12:25:41;98490.16;;;12.45;31.02
46412;BME280;32113;42.012;24.870;2024-01-16T12:28:08;98499.19;;;12.60;30.79
46412;BME280;32113;42.012;24.870;2024-01-16T12:30:37;98500.81;;;12.63;31.03
46412;BME280;32113;42.012;24.870;2024-01-16T12:33:11;98504.56;;;12.19;31.31
46412;BME280;32113;42.012;24.870;2024-01-16T12:38:08;98504.16;;;11.98;31.14
46412;BME280;32113;42.012;24.870;2024-01-16T12:40:41;98526.28;;;12.07;31.46
46412;BME280;32113;42.012;24.870;2024-01-16T12:43:10;98506.56;;;11.71;31.38
46412;BME280;32113;42.012;24.870;2024-01-16T12:45:35;98528.75;;;11.74;31.54
46412;BME280;32113;42.012;24.870;2024-01-16T12:48:02;98550.06;;;11.79;31.86
46412;BME280;32113;42.012;24.870;2024-01-16T12:50:31;98547.50;;;11.77;30.89
46412;BME280;32113;42.012;24.870;2024-01-16T12:53:08;98555.59;;;11.98;31.49
46412;BME280;32113;42.012;24.870;2024-01-16T12:55:38;98554.53;;;11.70;31.40
46412;BME280;32113;42.012;24.870;2024-01-16T12:58:18;98565.56;;;11.74;31.59
46412;BME280;32113;42.012;24.870;2024-01-16T13:00:48;98569.22;;;11.64;31.34
46412;BME280;32113;42.012;24.870;2024-01-16T13:03:24;98578.03;;;11.53;31.42
46412;BME280;32113;42.012;24.870;2024-01-16T13:05:58;98580.47;;;11.58;31.80
46412;BME280;32113;42.012;24.870;2024-01-16T13:08:24;98585.47;;;11.23;31.67